createdAt,value
2023-01-08T00:04:22.887Z,3.1
2023-01-08T00:09:34.585Z,3
2023-01-08T00:20:06.437Z,2.5
2023-01-08T00:25:18.777Z,2
2023-01-08T00:41:21.767Z,2.4
2023-01-08T00:51:53.256Z,2
2023-01-08T01:13:08.589Z,2
2023-01-08T01:23:41.186Z,1.6
2023-01-08T01:34:31.876Z,2.3
2023-01-08T01:50:26.024Z,2.1
2023-01-08T01:55:41.621Z,2.1
2023-01-08T02:11:37.516Z,1.5
2023-01-08T02:27:31.219Z,1.5
2023-01-08T02:43:26.839Z,1.2
2023-01-08T02:48:38.865Z,0.9
2023-01-08T02:53:48.010Z,1.2
2023-01-08T02:58:59.685Z,1.4
2023-01-08T03:20:16.450Z,1
2023-01-08T03:25:27.708Z,1.2
2023-01-08T03:41:22.678Z,1.3
2023-01-08T03:46:32.159Z,1.1
2023-01-08T03:57:04.231Z,0.4
2023-01-08T04:07:37.962Z,0.8
2023-01-08T04:12:51.206Z,0.9
2023-01-08T04:18:02.763Z,0.9
2023-01-08T04:23:13.958Z,1.4
2023-01-08T04:28:25.598Z,1.4
2023-01-08T04:38:58.344Z,0.9
2023-01-08T04:44:11.584Z,1
2023-01-08T04:49:23.869Z,1
2023-01-08T04:59:54.789Z,0.8
2023-01-08T05:21:11.024Z,0.8
2023-01-08T05:31:52.823Z,1.1
2023-01-08T05:37:05.355Z,1.1
2023-01-08T05:42:17.413Z,1
2023-01-08T05:47:28.347Z,0.6
2023-01-08T05:52:40.404Z,0.6
2023-01-08T05:57:50.162Z,0.7
2023-01-08T06:03:05.402Z,0.7
2023-01-08T06:08:14.938Z,1.2
2023-01-08T06:13:30.653Z,1.2
2023-01-08T06:18:46.387Z,1.2
2023-01-08T06:23:56.548Z,1.1
2023-01-08T06:29:09.184Z,0.9
2023-01-08T06:39:42.528Z,1.1
2023-01-08T06:50:19.060Z,1.1
2023-01-08T06:55:31.399Z,0.9
2023-01-08T07:06:07.006Z,1.1
2023-01-08T07:11:13.379Z,0.8
2023-01-08T07:16:29.934Z,0.8
2023-01-08T07:21:42.684Z,1
2023-01-08T07:26:52.970Z,0.9
2023-01-08T07:37:26.265Z,1
2023-01-08T07:47:57.887Z,0.9
2023-01-08T07:53:09.324Z,0.8
2023-01-08T07:58:24.846Z,0.8
2023-01-08T08:03:39.028Z,0.8
2023-01-08T08:08:49.097Z,1.2
2023-01-08T08:14:02.923Z,1.2
2023-01-08T08:24:36.382Z,1.4
2023-01-08T08:40:31.671Z,1.4
2023-01-08T08:51:10.637Z,1.5
2023-01-08T08:56:16.213Z,1.8
2023-01-08T09:01:29.036Z,1.8
2023-01-08T09:17:29.321Z,2
2023-01-08T09:22:39.912Z,2.3
2023-01-08T09:27:52.283Z,2.4
2023-01-08T09:38:30.424Z,2.4
2023-01-08T09:48:59.434Z,2.6
2023-01-08T09:54:10.453Z,2.6
2023-01-08T09:59:25.911Z,2.7
2023-01-08T10:25:54.487Z,3.2
2023-01-08T10:36:30.564Z,3.4
2023-01-08T10:41:44.050Z,3.4
2023-01-08T10:46:54.923Z,3.4
2023-01-08T10:52:05.857Z,3.6
2023-01-08T11:02:39.915Z,3.9
2023-01-08T11:08:23.466Z,3.9
2023-01-08T11:18:51.392Z,3.9
2023-01-08T11:24:07.413Z,4.2
2023-01-08T11:29:17.383Z,4.3
2023-01-08T11:45:14.511Z,4.3
2023-01-08T11:55:48.591Z,4.3
2023-01-08T12:00:59.861Z,4.4
2023-01-08T12:06:16.976Z,4.4
2023-01-08T12:11:32.585Z,4.4
2023-01-08T12:16:47.401Z,4.4
2023-01-08T12:21:57.738Z,4.5
2023-01-08T12:27:09.852Z,4.5
2023-01-08T12:37:40.858Z,4.5
2023-01-08T12:43:05.747Z,4.6
2023-01-08T12:48:01.596Z,4.8
2023-01-08T12:53:13.680Z,4.7
2023-01-08T12:58:25.002Z,4.6
2023-01-08T13:03:40.042Z,4.6
2023-01-08T13:08:53.343Z,4.6
2023-01-08T13:14:03.536Z,5
2023-01-08T13:19:15.729Z,5.4
2023-01-08T13:29:51.355Z,6.7
2023-01-08T13:35:03.328Z,6.7
2023-01-08T13:40:13.808Z,7
2023-01-08T14:01:27.396Z,5.8
2023-01-08T14:12:00.753Z,5.5
2023-01-08T14:17:15.797Z,5.5
2023-01-08T14:22:30.975Z,5.5
2023-01-08T14:27:47.424Z,5.5
2023-01-08T14:32:57.726Z,5.4
2023-01-08T14:38:13.463Z,5.4
2023-01-08T14:43:30.986Z,5.4
2023-01-08T14:48:47.307Z,5.4
2023-01-08T14:53:59.242Z,5.5
2023-01-08T15:04:35.167Z,5.3
2023-01-08T15:15:05.780Z,5.2
2023-01-08T15:20:23.759Z,5.2
2023-01-08T15:25:30.003Z,5.1
2023-01-08T15:30:39.703Z,5
2023-01-08T15:41:11.256Z,4.8
2023-01-08T15:46:21.132Z,4.7
2023-01-08T15:51:32.430Z,4.6
2023-01-08T16:02:06.315Z,4.5
2023-01-08T16:07:20.205Z,4.5
2023-01-08T16:12:37.308Z,4.5
2023-01-08T16:17:46.318Z,4.3
2023-01-08T16:28:19.208Z,4.2
2023-01-08T16:33:34.732Z,4.2
2023-01-08T16:38:46.814Z,4.2
2023-01-08T16:44:02.393Z,4.2
2023-01-08T16:49:16.661Z,4.2
2023-01-08T16:54:28.991Z,4.2
2023-01-08T16:59:40.247Z,4.2
2023-01-08T17:04:49.643Z,4.2
2023-01-08T17:10:06.245Z,4.2
2023-01-08T17:15:24.187Z,4.1
2023-01-08T17:20:29.660Z,4.1
2023-01-08T17:25:44.512Z,4.1
2023-01-08T17:30:55.565Z,4
2023-01-08T17:36:07.237Z,4
2023-01-08T17:41:20.764Z,4
2023-01-08T17:46:32.863Z,4
2023-01-08T17:51:44.168Z,4
2023-01-08T17:56:55.819Z,3.9
2023-01-08T18:07:32.717Z,3.9
2023-01-08T18:12:43.932Z,3.8
2023-01-08T18:23:16.630Z,3.8
2023-01-08T18:28:32.515Z,3.8
2023-01-08T18:33:44.183Z,3.8
2023-01-08T18:38:57.841Z,3.8
2023-01-08T18:44:09.979Z,3.8
2023-01-08T18:49:20.232Z,3.8
2023-01-08T18:54:35.718Z,3.8
2023-01-08T18:59:48.417Z,3.8
2023-01-08T19:04:58.794Z,3.8
2023-01-08T19:10:16.137Z,3.8
2023-01-08T19:15:31.660Z,3.8
2023-01-08T19:20:43.518Z,3.7
2023-01-08T19:25:57.099Z,3.7
2023-01-08T19:31:07.481Z,3.7
2023-01-08T19:36:17.304Z,3.7
2023-01-08T19:46:48.012Z,3.9
2023-01-08T19:52:11.027Z,3.9
2023-01-08T19:57:25.121Z,3.9
2023-01-08T20:02:38.859Z,3.6
2023-01-08T20:07:48.385Z,3.6
2023-01-08T20:13:00.366Z,3.6
2023-01-08T20:18:22.267Z,3.6
2023-01-08T20:23:40.197Z,3.6
2023-01-08T20:28:54.257Z,3.6
2023-01-08T20:34:06.557Z,3.7
2023-01-08T20:39:20.856Z,3.7
2023-01-08T20:44:38.825Z,3.7
2023-01-08T20:49:50.046Z,3.7
2023-01-08T20:55:02.721Z,3.7
2023-01-08T21:00:18.872Z,3.7
2023-01-08T21:05:31.132Z,3.8
2023-01-08T21:10:47.869Z,4
2023-01-08T21:15:59.006Z,4.2
2023-01-08T21:21:10.136Z,4.2
2023-01-08T21:37:03.131Z,4.1
2023-01-08T21:42:14.569Z,4.1
2023-01-08T21:47:30.146Z,4.1
2023-01-08T21:52:50.832Z,4.1
2023-01-08T22:03:23.889Z,3.9
2023-01-08T22:08:38.849Z,3.9
2023-01-08T22:19:13.891Z,4
2023-01-08T22:24:24.485Z,4.1
2023-01-08T22:34:57.245Z,3.8
2023-01-08T22:40:08.974Z,3.7
2023-01-08T22:45:20.864Z,3.7
2023-01-08T22:50:33.734Z,3.8
2023-01-08T23:01:08.697Z,3.8
2023-01-08T23:06:20.270Z,4.1
2023-01-08T23:11:30.982Z,4.4
2023-01-08T23:16:43.917Z,4.4
2023-01-08T23:21:58.991Z,4.4
2023-01-08T23:27:10.585Z,4
2023-01-08T23:32:23.011Z,4.1
2023-01-08T23:37:32.895Z,4.1
2023-01-08T23:42:45.506Z,4
2023-01-08T23:53:17.723Z,3.9
2023-01-08T23:58:29.931Z,3.9
